Time;durP1;ratioP1;P1;durP2;ratioP2;P2;SDS_P1;SDS_P2;PMS_P1;PMS_P2;Temp;Humidity;BMP_temperature;BMP_pressure;BME280_temperature;BME280_humidity;BME280_pressure;Samples;Min_cycle;Max_cycle;Signal;HPM_P1;HPM_P2
2023/07/23 00:01:52;;;;;;;11.93;6.10;;;14.40;99.90;;;;;;4995021;28;20046;-69
2023/07/23 00:04:18;;;;;;;16.70;6.80;;;14.40;99.90;;;;;;4965193;28;271803;-69
2023/07/23 00:06:44;;;;;;;15.35;7.00;;;14.30;99.90;;;;;;4992164;28;20395;-68
2023/07/23 00:09:10;;;;;;;14.32;6.47;;;14.30;99.90;;;;;;4966543;28;266774;-69
2023/07/23 00:11:36;;;;;;;17.25;7.18;;;14.30;99.90;;;;;;4983964;28;20503;-69
2023/07/23 00:14:02;;;;;;;15.50;7.00;;;14.30;99.90;;;;;;4968681;28;274702;-68
2023/07/23 00:16:28;;;;;;;14.13;6.88;;;14.30;99.90;;;;;;4983587;28;20396;-69
2023/07/23 00:18:55;;;;;;;16.58;6.78;;;14.30;99.90;;;;;;4964049;28;273857;-68
2023/07/23 00:21:21;;;;;;;15.52;7.10;;;14.20;99.90;;;;;;4983937;28;20065;-67
2023/07/23 00:23:47;;;;;;;15.98;7.40;;;14.20;99.90;;;;;;4984623;28;20058;-68
2023/07/23 00:26:13;;;;;;;16.58;7.53;;;14.20;99.90;;;;;;4983812;28;61207;-67
2023/07/23 00:28:39;;;;;;;16.95;8.25;;;14.20;99.90;;;;;;4987533;28;20078;-68
2023/07/23 00:31:05;;;;;;;18.60;7.97;;;14.20;99.90;;;;;;4977833;28;20049;-68
2023/07/23 00:33:31;;;;;;;19.48;7.95;;;14.20;99.90;;;;;;4980347;28;20054;-69
2023/07/23 00:35:57;;;;;;;15.20;7.70;;;14.10;99.90;;;;;;4979023;28;252846;-68
2023/07/23 00:38:23;;;;;;;16.50;8.43;;;14.10;99.90;;;;;;4982405;28;20050;-67
2023/07/23 00:40:50;;;;;;;16.83;8.27;;;14.10;99.90;;;;;;4970947;28;80390;-66
2023/07/23 00:43:16;;;;;;;20.58;8.77;;;14.10;99.90;;;;;;4983940;28;20051;-67
2023/07/23 00:45:42;;;;;;;18.77;8.48;;;14.10;99.90;;;;;;4975968;28;20049;-67
2023/07/23 00:48:08;;;;;;;17.88;8.13;;;14.10;99.90;;;;;;4984930;28;20050;-67
2023/07/23 00:50:34;;;;;;;15.02;8.00;;;14.10;99.90;;;;;;4963173;28;234251;-67
2023/07/23 00:53:01;;;;;;;17.60;7.85;;;14.10;99.90;;;;;;4984998;28;20058;-67
2023/07/23 00:55:27;;;;;;;18.02;8.05;;;14.10;99.90;;;;;;4949568;28;218586;-67
2023/07/23 00:57:54;;;;;;;17.33;8.57;;;14.10;99.90;;;;;;4982241;28;20054;-67
2023/07/23 01:00:20;;;;;;;16.02;8.18;;;14.10;99.90;;;;;;4969079;28;220789;-68
2023/07/23 01:02:47;;;;;;;15.98;8.05;;;14.10;99.90;;;;;;4986688;28;20077;-67
2023/07/23 01:05:13;;;;;;;15.90;8.05;;;14.10;99.90;;;;;;4953610;28;227025;-67
2023/07/23 01:07:40;;;;;;;17.20;7.65;;;14.10;99.90;;;;;;4984008;28;20051;-67
2023/07/23 01:10:09;;;;;;;16.35;8.38;;;14.10;99.90;;;;;;4972019;28;179462;-68
2023/07/23 01:12:37;;;;;;;16.25;8.18;;;14.10;99.90;;;;;;4979557;28;20054;-68
2023/07/23 01:15:05;;;;;;;15.00;7.95;;;14.10;99.90;;;;;;4953332;28;246257;-67
2023/07/23 01:17:32;;;;;;;16.52;7.82;;;14.10;99.90;;;;;;4983421;28;20063;-67
2023/07/23 01:20:04;;;;;;;17.15;7.53;;;14.10;99.90;;;;;;4969033;28;264437;-68
2023/07/23 01:22:35;;;;;;;19.17;8.75;;;14.10;99.90;;;;;;4984484;28;20054;-67
2023/07/23 01:25:03;;;;;;;15.35;7.93;;;14.10;99.90;;;;;;4970352;28;271864;-67
2023/07/23 01:27:29;;;;;;;16.73;8.35;;;14.10;99.90;;;;;;4983337;28;20054;-67
2023/07/23 01:29:55;;;;;;;17.90;8.40;;;14.10;99.90;;;;;;4970351;28;274073;-67
2023/07/23 01:32:21;;;;;;;16.73;8.20;;;14.10;99.90;;;;;;4986533;28;20047;-67
2023/07/23 01:34:47;;;;;;;15.25;7.40;;;14.10;99.90;;;;;;4974803;28;258135;-67
2023/07/23 01:37:15;;;;;;;18.23;8.55;;;14.10;99.90;;;;;;4987685;28;20059;-67
2023/07/23 01:39:43;;;;;;;14.82;7.20;;;14.10;99.90;;;;;;4971952;28;259953;-67
2023/07/23 01:42:10;;;;;;;15.98;7.88;;;14.10;99.90;;;;;;4984735;28;20057;-67
2023/07/23 01:44:36;;;;;;;16.70;7.90;;;14.10;99.90;;;;;;4969871;28;260256;-67
2023/07/23 01:47:03;;;;;;;14.38;6.97;;;14.10;99.90;;;;;;4987479;28;20058;-67
2023/07/23 01:49:29;;;;;;;17.33;7.47;;;14.10;99.90;;;;;;4961450;28;209050;-67
2023/07/23 01:51:55;;;;;;;12.40;6.40;;;14.10;99.90;;;;;;4982768;28;20050;-68
2023/07/23 01:54:21;;;;;;;15.20;6.93;;;14.10;99.90;;;;;;4953325;28;253333;-68
2023/07/23 01:56:47;;;;;;;14.32;7.70;;;14.10;99.90;;;;;;4989983;28;20061;-68
2023/07/23 01:59:14;;;;;;;14.85;7.35;;;14.10;99.90;;;;;;4969102;28;259572;-68
2023/07/23 02:01:40;;;;;;;14.23;7.35;;;14.10;99.90;;;;;;4994806;28;20065;-68
2023/07/23 02:04:06;;;;;;;15.95;7.22;;;14.20;99.90;;;;;;4965685;28;264292;-68
2023/07/23 02:06:35;;;;;;;18.70;7.35;;;14.20;99.90;;;;;;4994605;28;20282;-68
2023/07/23 02:09:01;;;;;;;15.35;7.07;;;14.10;99.90;;;;;;4960290;28;255616;-68
2023/07/23 02:11:27;;;;;;;14.80;7.50;;;14.10;99.90;;;;;;4997265;28;20065;-67
2023/07/23 02:13:53;;;;;;;16.08;7.38;;;14.20;99.90;;;;;;4962030;28;260424;-68
2023/07/23 02:16:20;;;;;;;17.92;6.97;;;14.10;99.90;;;;;;4980780;28;20061;-66
2023/07/23 02:18:46;;;;;;;17.52;7.82;;;14.10;99.90;;;;;;4982280;28;20061;-67
2023/07/23 02:21:12;;;;;;;15.95;7.90;;;14.10;99.90;;;;;;4974717;28;274657;-66
2023/07/23 02:23:38;;;;;;;16.77;7.18;;;14.10;99.90;;;;;;4980056;28;20065;-67
2023/07/23 02:26:04;;;;;;;15.10;7.35;;;14.10;99.90;;;;;;4976632;28;268546;-67
2023/07/23 02:28:30;;;;;;;14.32;7.18;;;14.10;99.90;;;;;;4978062;28;20067;-66
2023/07/23 02:31:00;;;;;;;14.98;7.40;;;14.10;99.90;;;;;;4964417;28;215796;-65
2023/07/23 02:33:26;;;;;;;16.73;7.60;;;14.10;99.90;;;;;;4982446;28;20054;-67
2023/07/23 02:35:52;;;;;;;12.52;6.90;;;14.10;99.90;;;;;;4968003;28;196694;-67
2023/07/23 02:38:18;;;;;;;18.27;7.90;;;14.10;99.90;;;;;;4980241;28;20066;-67
2023/07/23 02:40:44;;;;;;;17.90;7.40;;;14.10;99.90;;;;;;4963414;28;167207;-67
2023/07/23 02:43:12;;;;;;;17.08;8.10;;;14.10;99.90;;;;;;4981662;28;20065;-69
2023/07/23 02:45:39;;;;;;;18.52;7.82;;;14.10;99.90;;;;;;4968894;28;114856;-68
2023/07/23 02:48:06;;;;;;;15.93;8.50;;;14.10;99.90;;;;;;4982838;28;20062;-68
2023/07/23 02:50:32;;;;;;;15.40;8.25;;;14.10;99.90;;;;;;4965984;28;194049;-67
2023/07/23 02:52:58;;;;;;;16.77;8.68;;;14.10;99.90;;;;;;4984631;28;20077;-67
2023/07/23 02:55:25;;;;;;;15.13;8.18;;;14.10;99.90;;;;;;4956309;28;265097;-68
2023/07/23 02:57:51;;;;;;;15.65;8.13;;;14.10;99.90;;;;;;4977672;28;20055;-67
2023/07/23 03:00:20;;;;;;;17.38;8.93;;;14.10;99.90;;;;;;4969673;28;109884;-68
2023/07/23 03:02:48;;;;;;;19.25;8.90;;;14.10;99.90;;;;;;4982519;28;20065;-68
2023/07/23 03:05:15;;;;;;;16.13;7.93;;;14.20;99.90;;;;;;4971397;28;266294;-68
2023/07/23 03:07:41;;;;;;;17.73;8.95;;;14.10;99.90;;;;;;4982998;28;20041;-68
2023/07/23 03:10:08;;;;;;;17.15;9.18;;;14.20;99.90;;;;;;4976874;28;275587;-68
2023/07/23 03:12:34;;;;;;;19.85;8.82;;;14.20;99.90;;;;;;4988047;28;20050;-68
2023/07/23 03:15:00;;;;;;;18.95;9.15;;;14.20;99.90;;;;;;4971959;28;263706;-68
2023/07/23 03:17:27;;;;;;;18.40;9.68;;;14.20;99.90;;;;;;4987222;28;20058;-68
2023/07/23 03:19:53;;;;;;;20.35;9.82;;;14.20;99.90;;;;;;4974341;28;72566;-68
2023/07/23 03:22:19;;;;;;;19.02;9.15;;;14.20;99.90;;;;;;4985002;28;20058;-68
2023/07/23 03:24:46;;;;;;;19.38;9.60;;;14.20;99.90;;;;;;4962782;28;200758;-68
2023/07/23 03:27:12;;;;;;;18.35;9.57;;;14.20;99.90;;;;;;4983379;28;20522;-69
2023/07/23 03:29:38;;;;;;;19.30;10.02;;;14.20;99.90;;;;;;4967476;28;273161;-68
2023/07/23 03:32:05;;;;;;;19.67;9.90;;;14.20;99.90;;;;;;4992111;28;20418;-68
2023/07/23 03:34:31;;;;;;;18.83;9.70;;;14.20;99.90;;;;;;4971021;28;103123;-69
2023/07/23 03:36:57;;;;;;;19.17;9.57;;;14.20;99.90;;;;;;4993324;28;20073;-69
2023/07/23 03:39:23;;;;;;;17.23;9.65;;;14.20;99.90;;;;;;4967556;28;251949;-69
2023/07/23 03:41:50;;;;;;;17.67;9.30;;;14.20;99.90;;;;;;4993282;28;20050;-69
2023/07/23 03:44:17;;;;;;;18.50;9.82;;;14.20;99.90;;;;;;4968346;28;268258;-69
2023/07/23 03:47:21;;;;;;;18.33;8.90;;;14.20;99.90;;;;;;4991874;28;20054;-68
2023/07/23 03:49:48;;;;;;;18.98;10.05;;;14.20;99.90;;;;;;4964965;28;213063;-69
2023/07/23 03:52:14;;;;;;;16.63;8.90;;;14.20;99.90;;;;;;4991262;28;20054;-69
2023/07/23 03:54:41;;;;;;;18.95;9.90;;;14.20;99.90;;;;;;4946478;28;148732;-69
2023/07/23 03:57:07;;;;;;;17.38;9.35;;;14.20;99.90;;;;;;4984390;28;20065;-69
2023/07/23 03:59:42;;;;;;;18.73;9.27;;;14.20;99.90;;;;;;4969072;28;255370;-68
2023/07/23 04:02:08;;;;;;;15.88;9.35;;;14.20;99.90;;;;;;4984417;28;20411;-68
2023/07/23 04:04:36;;;;;;;19.17;9.18;;;14.20;99.90;;;;;;4974091;28;82862;-68
2023/07/23 04:07:03;;;;;;;17.13;9.82;;;14.20;99.90;;;;;;4979806;28;20478;-67
2023/07/23 04:09:29;;;;;;;16.58;8.90;;;14.20;99.90;;;;;;4973226;28;147807;-67
2023/07/23 04:11:55;;;;;;;15.90;9.05;;;14.20;99.90;;;;;;4996308;28;20042;-67
2023/07/23 04:14:22;;;;;;;18.80;9.63;;;14.20;99.90;;;;;;4969881;28;263513;-67
2023/07/23 04:16:49;;;;;;;20.05;10.10;;;14.20;99.90;;;;;;4993479;28;20054;-66
2023/07/23 04:19:16;;;;;;;21.35;9.68;;;14.20;99.90;;;;;;4971472;28;175139;-66
2023/07/23 04:21:42;;;;;;;17.08;9.27;;;14.20;99.90;;;;;;4994189;28;20050;-68
2023/07/23 04:24:08;;;;;;;19.25;9.18;;;14.20;99.90;;;;;;4963837;28;269863;-68
2023/07/23 04:26:34;;;;;;;16.95;9.70;;;14.20;99.90;;;;;;4982984;28;20054;-68
2023/07/23 04:29:00;;;;;;;18.08;10.10;;;14.20;99.90;;;;;;4964087;28;260383;-67
2023/07/23 04:31:27;;;;;;;19.42;9.90;;;14.30;99.90;;;;;;4978963;28;20046;-67
2023/07/23 04:33:53;;;;;;;17.58;9.43;;;14.20;99.90;;;;;;4964765;28;253498;-67
2023/07/23 04:36:20;;;;;;;17.80;9.40;;;14.20;99.90;;;;;;4980474;28;20409;-68
2023/07/23 04:38:46;;;;;;;19.27;9.93;;;14.30;99.90;;;;;;4982870;28;20073;-69
2023/07/23 04:41:12;;;;;;;21.23;10.27;;;14.30;99.90;;;;;;4966763;28;190068;-69
2023/07/23 04:43:40;;;;;;;21.25;10.25;;;14.30;99.90;;;;;;4981973;28;20061;-68
2023/07/23 04:46:06;;;;;;;18.00;10.27;;;14.30;99.90;;;;;;4980104;28;273174;-67
2023/07/23 04:48:34;;;;;;;18.75;9.95;;;14.30;99.90;;;;;;4984547;28;20057;-67
2023/07/23 04:51:02;;;;;;;18.65;10.45;;;14.30;99.90;;;;;;4982288;28;267027;-67
2023/07/23 04:53:28;;;;;;;19.75;10.68;;;14.30;99.90;;;;;;4984582;28;20466;-67
2023/07/23 04:55:56;;;;;;;20.92;11.10;;;14.30;99.90;;;;;;4962545;28;258407;-69
2023/07/23 04:58:23;;;;;;;18.75;10.13;;;14.30;99.90;;;;;;4977774;28;20057;-68
2023/07/23 05:00:49;;;;;;;19.52;10.70;;;14.30;99.90;;;;;;4969153;28;66370;-68
2023/07/23 05:03:16;;;;;;;21.35;10.52;;;14.30;99.90;;;;;;4979578;28;20054;-68
2023/07/23 05:05:47;;;;;;;19.60;11.00;;;14.40;99.90;;;;;;4949047;28;252580;-68
2023/07/23 05:08:13;;;;;;;20.27;11.10;;;14.40;99.90;;;;;;4993515;28;20060;-69
2023/07/23 05:10:39;;;;;;;21.25;11.32;;;14.40;99.90;;;;;;4976087;28;259313;-68
2023/07/23 05:13:06;;;;;;;22.65;11.25;;;14.40;99.90;;;;;;4981372;28;20062;-69
2023/07/23 05:15:32;;;;;;;20.75;11.27;;;14.40;99.90;;;;;;4978289;28;259389;-68
2023/07/23 05:17:58;;;;;;;23.10;11.70;;;14.40;99.90;;;;;;4980570;28;20058;-68
2023/07/23 05:20:24;;;;;;;19.20;11.55;;;14.40;99.90;;;;;;4966872;28;150907;-68
2023/07/23 05:22:51;;;;;;;19.00;11.45;;;14.40;99.90;;;;;;4991585;28;20057;-69
2023/07/23 05:25:17;;;;;;;25.85;11.25;;;14.40;99.90;;;;;;4977310;28;79478;-68
2023/07/23 05:27:43;;;;;;;23.05;11.65;;;14.50;99.90;;;;;;4990036;28;20042;-68
2023/07/23 05:30:10;;;;;;;19.98;11.07;;;14.50;99.90;;;;;;4971717;28;275787;-67
2023/07/23 05:32:36;;;;;;;23.08;12.05;;;14.50;99.90;;;;;;4983466;28;20523;-67
2023/07/23 05:35:04;;;;;;;20.50;11.77;;;14.50;99.90;;;;;;4971889;28;265534;-66
2023/07/23 05:37:30;;;;;;;18.67;11.10;;;14.50;99.90;;;;;;4978530;28;20065;-67
2023/07/23 05:39:56;;;;;;;20.55;12.30;;;14.60;99.90;;;;;;4966357;28;234525;-67
2023/07/23 05:42:22;;;;;;;24.70;11.85;;;14.50;99.90;;;;;;4980787;28;20058;-66
2023/07/23 05:44:49;;;;;;;23.35;12.02;;;14.60;99.90;;;;;;4968764;28;213776;-66
2023/07/23 05:47:15;;;;;;;26.23;13.02;;;14.70;99.90;;;;;;4986425;28;20054;-67
2023/07/23 05:49:41;;;;;;;24.33;12.70;;;14.70;99.90;;;;;;4970818;28;271618;-67
2023/07/23 05:52:07;;;;;;;25.42;12.52;;;14.80;99.90;;;;;;4991063;28;20058;-67
2023/07/23 05:54:33;;;;;;;21.83;12.63;;;14.80;99.90;;;;;;4950123;28;275092;-68
2023/07/23 05:56:59;;;;;;;22.80;12.23;;;14.80;99.90;;;;;;4986554;28;20061;-68
2023/07/23 05:59:26;;;;;;;20.60;11.35;;;14.80;99.90;;;;;;4967481;28;254951;-67
2023/07/23 06:01:52;;;;;;;20.98;11.75;;;14.90;99.90;;;;;;4989715;28;20081;-67
2023/07/23 06:04:20;;;;;;;21.58;11.80;;;14.80;99.90;;;;;;4965588;28;178276;-66
2023/07/23 06:06:46;;;;;;;22.63;11.50;;;14.90;99.90;;;;;;4994148;28;20077;-66
2023/07/23 06:09:12;;;;;;;20.38;11.45;;;14.90;99.90;;;;;;4969729;28;253383;-67
2023/07/23 06:11:38;;;;;;;19.48;11.45;;;14.90;99.90;;;;;;4994823;28;20057;-70
2023/07/23 06:14:06;;;;;;;19.87;12.00;;;15.00;99.90;;;;;;4962121;28;276905;-68
2023/07/23 06:16:32;;;;;;;19.80;10.88;;;15.00;99.90;;;;;;4978471;28;20053;-68
2023/07/23 06:18:59;;;;;;;19.90;11.33;;;15.00;99.90;;;;;;4967483;28;268750;-67
2023/07/23 06:21:25;;;;;;;21.67;12.18;;;15.10;99.90;;;;;;4991814;28;20055;-67
2023/07/23 06:23:52;;;;;;;23.38;12.20;;;15.10;99.90;;;;;;4974965;28;264776;-69
2023/07/23 06:26:18;;;;;;;17.38;10.85;;;15.20;99.90;;;;;;4990728;28;20062;-67
2023/07/23 06:28:44;;;;;;;20.80;10.85;;;15.20;99.90;;;;;;4980869;28;20423;-68
2023/07/23 06:31:10;;;;;;;20.92;11.73;;;15.10;99.90;;;;;;4983240;28;269018;-69
2023/07/23 06:33:36;;;;;;;21.20;11.50;;;15.20;99.90;;;;;;4983116;28;20046;-69
2023/07/23 06:36:03;;;;;;;21.30;12.35;;;15.20;99.90;;;;;;4960427;28;203257;-68
2023/07/23 06:38:29;;;;;;;20.40;11.55;;;15.20;99.90;;;;;;4982981;28;20058;-69
2023/07/23 06:40:56;;;;;;;21.98;11.20;;;15.20;99.90;;;;;;4979189;28;268834;-69
2023/07/23 06:43:23;;;;;;;17.73;11.07;;;15.20;99.90;;;;;;4979098;28;20053;-70
2023/07/23 06:45:51;;;;;;;19.98;10.68;;;15.20;99.90;;;;;;4967965;28;101549;-69
2023/07/23 06:48:19;;;;;;;18.25;11.43;;;15.20;99.90;;;;;;4980843;28;20050;-67
2023/07/23 06:50:46;;;;;;;20.98;11.02;;;15.20;99.90;;;;;;4964460;28;221171;-67
2023/07/23 06:53:15;;;;;;;20.67;11.82;;;15.20;99.90;;;;;;4978028;28;20058;-67
2023/07/23 06:56:01;;;;;;;20.90;11.95;;;15.20;99.90;;;;;;4954844;28;276031;-68
2023/07/23 06:58:28;;;;;;;20.58;11.32;;;15.20;99.90;;;;;;4980114;28;20543;-69
2023/07/23 07:00:54;;;;;;;18.75;11.02;;;15.20;99.90;;;;;;4975950;28;261376;-69
2023/07/23 07:03:21;;;;;;;19.00;11.55;;;15.30;99.90;;;;;;4957394;28;20502;-68
2023/07/23 07:05:47;;;;;;;24.00;11.82;;;15.30;99.90;;;;;;4957982;28;242127;-69
2023/07/23 07:08:13;;;;;;;20.63;11.32;;;15.30;99.90;;;;;;4993664;28;20050;-69
2023/07/23 07:10:39;;;;;;;20.60;10.23;;;15.40;99.90;;;;;;4973441;28;278370;-69
2023/07/23 07:13:05;;;;;;;22.88;11.43;;;15.40;99.90;;;;;;4984573;28;20050;-69
2023/07/23 07:15:31;;;;;;;20.90;11.38;;;15.40;99.90;;;;;;4972654;28;247767;-68
2023/07/23 07:17:57;;;;;;;19.52;11.80;;;15.40;99.90;;;;;;4981928;28;20547;-68
2023/07/23 07:20:23;;;;;;;19.35;10.73;;;15.50;99.90;;;;;;4966080;28;83894;-67
2023/07/23 07:22:49;;;;;;;19.35;10.98;;;15.50;99.90;;;;;;4975551;28;20058;-68
2023/07/23 07:25:16;;;;;;;21.33;11.23;;;15.50;99.90;;;;;;4967548;28;301848;-69
2023/07/23 07:27:42;;;;;;;20.92;10.82;;;15.60;99.90;;;;;;4975737;28;20581;-68
2023/07/23 07:30:08;;;;;;;18.77;10.10;;;15.60;99.90;;;;;;4969118;28;39831;-68
2023/07/23 07:32:34;;;;;;;19.58;10.10;;;15.60;99.90;;;;;;4984575;28;20057;-69
2023/07/23 07:35:00;;;;;;;18.85;11.13;;;15.60;99.90;;;;;;4965886;28;206846;-69
2023/07/23 07:37:27;;;;;;;19.83;10.05;;;15.60;99.90;;;;;;4982572;28;20062;-68
2023/07/23 07:39:53;;;;;;;22.13;9.88;;;15.70;99.90;;;;;;4969731;28;96872;-68
2023/07/23 07:42:19;;;;;;;22.55;10.15;;;15.70;99.90;;;;;;4988747;28;20054;-69
2023/07/23 07:44:45;;;;;;;20.95;10.20;;;15.70;99.90;;;;;;4957174;28;20053;-68
2023/07/23 07:47:12;;;;;;;22.73;9.68;;;15.70;99.90;;;;;;4988625;28;20084;-69
2023/07/23 07:49:38;;;;;;;20.17;9.82;;;15.70;99.90;;;;;;4972155;28;72015;-70
2023/07/23 07:52:05;;;;;;;19.08;10.57;;;15.70;99.90;;;;;;4994207;28;20486;-70
2023/07/23 07:54:35;;;;;;;20.85;9.77;;;15.70;99.90;;;;;;4951722;28;258838;-69
2023/07/23 07:57:02;;;;;;;19.05;10.40;;;15.70;99.90;;;;;;4992979;28;20061;-69
2023/07/23 07:59:29;;;;;;;20.75;10.95;;;15.70;99.90;;;;;;4965381;28;182315;-70
2023/07/23 08:01:56;;;;;;;20.05;10.10;;;15.70;99.90;;;;;;4984622;28;20054;-69
2023/07/23 08:04:22;;;;;;;21.50;10.02;;;15.70;99.90;;;;;;4979269;28;35666;-69
2023/07/23 08:06:49;;;;;;;16.13;8.18;;;15.70;99.90;;;;;;4986603;28;20702;-68
2023/07/23 08:09:17;;;;;;;18.95;10.23;;;15.60;99.90;;;;;;4978800;28;33724;-68
2023/07/23 08:11:46;;;;;;;18.23;10.05;;;15.60;99.90;;;;;;4986701;28;20061;-69
2023/07/23 08:14:13;;;;;;;21.10;10.73;;;15.50;99.90;;;;;;4967384;28;265466;-69
2023/07/23 08:16:40;;;;;;;20.48;10.13;;;15.50;99.90;;;;;;4976918;28;20526;-69
2023/07/23 08:19:08;;;;;;;23.88;10.60;;;15.50;99.90;;;;;;4956832;28;273871;-69
2023/07/23 08:21:34;;;;;;;21.08;10.38;;;15.50;99.90;;;;;;4980760;28;20046;-69
2023/07/23 08:24:01;;;;;;;21.45;11.50;;;15.50;99.90;;;;;;4967324;28;257388;-70
2023/07/23 08:26:29;;;;;;;19.63;10.60;;;15.60;99.90;;;;;;4993926;28;20049;-69
2023/07/23 08:29:02;;;;;;;18.05;9.88;;;15.60;99.90;;;;;;4967723;28;262969;-69
2023/07/23 08:31:28;;;;;;;21.52;11.02;;;15.60;99.90;;;;;;5001457;28;20030;-70
2023/07/23 08:33:56;;;;;;;18.95;10.27;;;15.50;99.90;;;;;;4965539;28;268421;-69
2023/07/23 08:36:22;;;;;;;21.05;10.57;;;15.50;99.90;;;;;;4996357;28;20447;-70
2023/07/23 08:38:48;;;;;;;17.20;9.30;;;15.60;99.90;;;;;;4981683;28;20397;-70
2023/07/23 08:41:29;;;;;;;20.58;10.30;;;15.60;99.90;;;;;;4988598;28;93265;-70
2023/07/23 08:44:15;;;;;;;18.40;8.85;;;15.60;99.90;;;;;;4964234;28;271910;-70
2023/07/23 08:46:46;;;;;;;15.52;8.25;;;15.50;99.90;;;;;;4995945;28;20405;-69
2023/07/23 08:49:16;;;;;;;15.77;7.78;;;15.40;99.90;;;;;;4963056;28;264991;-68
2023/07/23 08:51:46;;;;;;;16.75;9.07;;;15.50;99.90;;;;;;4993590;28;20051;-70
2023/07/23 08:54:15;;;;;;;18.42;10.00;;;15.50;99.90;;;;;;4956250;28;278138;-70
2023/07/23 08:56:42;;;;;;;16.30;9.13;;;15.50;99.90;;;;;;4977896;28;20050;-71
2023/07/23 08:59:09;;;;;;;17.50;9.55;;;15.60;99.90;;;;;;4968037;28;269136;-71
2023/07/23 09:01:38;;;;;;;17.77;9.15;;;15.60;99.90;;;;;;4981227;28;20065;-71
2023/07/23 09:04:06;;;;;;;17.90;9.38;;;15.60;99.90;;;;;;4967981;28;262258;-71
2023/07/23 09:06:32;;;;;;;17.92;8.45;;;15.60;99.90;;;;;;4980822;28;20058;-70
2023/07/23 09:09:06;;;;;;;20.25;9.40;;;15.70;99.90;;;;;;4946687;28;252017;-71
2023/07/23 09:11:33;;;;;;;17.98;8.80;;;15.70;99.90;;;;;;4980124;28;20081;-72
2023/07/23 09:14:08;;;;;;;15.77;7.70;;;15.70;99.90;;;;;;4970015;28;271683;-71
2023/07/23 09:16:38;;;;;;;18.48;9.25;;;15.60;99.90;;;;;;4965132;28;20330;-71
2023/07/23 09:19:07;;;;;;;18.88;9.18;;;15.70;99.90;;;;;;4963926;28;271140;-71
2023/07/23 09:21:34;;;;;;;15.75;8.57;;;15.80;99.90;;;;;;4980648;28;20065;-71
2023/07/23 09:24:06;;;;;;;16.37;8.40;;;15.80;99.90;;;;;;4966938;28;258546;-71
2023/07/23 09:26:32;;;;;;;18.27;8.70;;;15.80;99.90;;;;;;4978343;28;20047;-71
2023/07/23 09:28:59;;;;;;;18.33;8.73;;;15.90;99.90;;;;;;4962248;28;269757;-71
2023/07/23 09:31:29;;;;;;;16.98;9.18;;;15.80;99.90;;;;;;4994981;28;20065;-70
2023/07/23 09:34:00;;;;;;;13.35;6.70;;;15.80;99.90;;;;;;4962725;28;258670;-71
2023/07/23 09:36:26;;;;;;;;;;;15.80;99.90;;;;;;4963395;28;20604;-72
2023/07/23 09:38:56;;;;;;;14.90;7.18;;;15.90;99.90;;;;;;4962936;28;260445;-72
2023/07/23 09:41:25;;;;;;;14.93;7.53;;;15.90;99.90;;;;;;4962274;28;20070;-73
2023/07/23 09:43:51;;;;;;;15.57;7.45;;;15.90;99.90;;;;;;4969053;28;259837;-72
2023/07/23 09:46:19;;;;;;;13.10;7.22;;;16.00;99.90;;;;;;4992643;28;20061;-73
2023/07/23 09:48:45;;;;;;;15.80;7.43;;;16.00;99.90;;;;;;4978085;28;20065;-72
2023/07/23 09:51:12;;;;;;;14.50;7.78;;;16.00;99.90;;;;;;4974509;28;250823;-72
2023/07/23 09:53:47;;;;;;;12.95;6.97;;;15.90;99.90;;;;;;4978288;28;20054;-72
2023/07/23 09:56:19;;;;;;;13.57;7.30;;;15.90;99.90;;;;;;4939486;28;110841;-73
2023/07/23 09:58:47;;;;;;;13.98;7.50;;;15.90;99.90;;;;;;4973914;28;20055;-73
2023/07/23 10:01:16;;;;;;;12.15;6.28;;;15.90;99.90;;;;;;4971176;28;255582;-73
2023/07/23 10:03:47;;;;;;;12.52;6.88;;;15.90;99.90;;;;;;4979403;28;20066;-72
2023/07/23 10:06:22;;;;;;;14.32;7.43;;;15.90;99.90;;;;;;4961159;28;166586;-73
2023/07/23 10:08:49;;;;;;;12.32;7.05;;;16.00;99.90;;;;;;4976898;28;20057;-71
2023/07/23 10:11:17;;;;;;;13.88;7.70;;;16.00;99.90;;;;;;4979035;28;59546;-73
2023/07/23 10:13:44;;;;;;;13.65;6.80;;;16.00;99.90;;;;;;4980103;28;20065;-72
2023/07/23 10:16:35;;;;;;;16.02;6.90;;;16.00;99.90;;;;;;4963925;28;49417;-72
2023/07/23 10:19:04;;;;;;;13.65;7.70;;;16.00;99.90;;;;;;4957633;28;267455;-72
2023/07/23 10:21:32;;;;;;;12.82;7.20;;;16.00;99.90;;;;;;4979132;28;20054;-73
2023/07/23 10:24:00;;;;;;;16.57;6.70;;;16.00;99.90;;;;;;4962308;28;270901;-72
2023/07/23 10:26:38;;;;;;;11.95;7.18;;;16.00;99.90;;;;;;4979710;28;20046;-72
2023/07/23 10:29:11;;;;;;;14.03;7.10;;;16.00;99.90;;;;;;4966282;28;265300;-73
2023/07/23 10:31:39;;;;;;;12.60;6.88;;;16.00;99.90;;;;;;4981993;28;20058;-74
2023/07/23 10:34:25;;;;;;;12.70;6.57;;;16.10;99.90;;;;;;4949707;28;260014;-71
2023/07/23 10:37:14;;;;;;;17.45;7.22;;;16.10;99.90;;;;;;4991074;28;20520;-72
2023/07/23 10:39:46;;;;;;;12.85;6.72;;;16.20;99.90;;;;;;4951277;28;234801;-72
2023/07/23 10:42:28;;;;;;;13.60;6.57;;;16.20;99.90;;;;;;4979501;28;20058;-72
2023/07/23 10:45:12;;;;;;;;;;;16.30;99.90;;;;;;4966311;28;168253;-72
2023/07/23 10:47:38;;;;;;;11.77;6.35;;;16.30;99.90;;;;;;4983899;28;19921;-71
2023/07/23 10:50:14;;;;;;;14.18;7.35;;;16.30;99.90;;;;;;4971764;28;66466;-73
2023/07/23 10:52:44;;;;;;;12.85;6.45;;;16.30;99.90;;;;;;4979296;28;20050;-72
2023/07/23 10:55:11;;;;;;;13.65;7.30;;;16.30;99.90;;;;;;4952787;28;273879;-72
2023/07/23 10:57:39;;;;;;;13.57;7.30;;;16.30;99.90;;;;;;4982213;28;20424;-73
2023/07/23 11:00:21;;;;;;;11.90;6.85;;;16.40;99.90;;;;;;4953992;28;142206;-72
2023/07/23 11:02:50;;;;;;;12.80;6.43;;;16.50;99.90;;;;;;4964814;28;20054;-74
2023/07/23 11:05:16;;;;;;;13.60;7.00;;;16.50;99.90;;;;;;4976479;28;60491;-72
2023/07/23 11:08:02;;;;;;;15.60;7.28;;;16.50;99.90;;;;;;4982101;28;20050;-73
2023/07/23 11:10:45;;;;;;;11.60;6.43;;;16.50;99.90;;;;;;4964197;28;137194;-71
2023/07/23 11:13:11;;;;;;;13.23;6.95;;;16.50;99.90;;;;;;4985328;28;20054;-73
2023/07/23 11:15:38;;;;;;;13.38;6.80;;;16.50;99.90;;;;;;4967396;28;75539;-72
2023/07/23 11:18:04;;;;;;;13.20;6.95;;;16.50;99.90;;;;;;4975802;28;20076;-72
2023/07/23 11:20:31;;;;;;;13.43;7.80;;;16.60;99.90;;;;;;4964190;28;142348;-72
2023/07/23 11:23:00;;;;;;;13.65;7.35;;;16.60;99.90;;;;;;4975949;28;20077;-71
2023/07/23 11:25:26;;;;;;;15.88;7.20;;;16.60;99.90;;;;;;4971113;28;22081;-72
2023/07/23 11:27:52;;;;;;;12.85;6.93;;;16.60;99.90;;;;;;4965219;28;20069;-72
2023/07/23 11:30:19;;;;;;;14.73;7.25;;;16.60;99.90;;;;;;4970596;28;272848;-72
2023/07/23 11:32:48;;;;;;;16.38;7.35;;;16.60;99.90;;;;;;4978187;28;20499;-71
2023/07/23 11:35:15;;;;;;;14.93;7.38;;;16.60;99.90;;;;;;4969059;28;173402;-72
2023/07/23 11:37:50;;;;;;;14.20;6.47;;;16.60;99.90;;;;;;4981352;28;20077;-71
2023/07/23 11:40:20;;;;;;;14.93;7.68;;;16.60;99.90;;;;;;4970359;28;266080;-72
2023/07/23 11:42:46;;;;;;;14.00;7.57;;;16.60;99.90;;;;;;4966350;28;20050;-72
2023/07/23 11:45:13;;;;;;;16.15;8.00;;;16.50;99.90;;;;;;4965081;28;250588;-73
2023/07/23 11:47:54;;;;;;;14.07;7.38;;;16.50;99.90;;;;;;4968072;28;20598;-72
2023/07/23 11:50:21;;;;;;;13.48;7.55;;;16.50;99.90;;;;;;4955961;28;97294;-73
2023/07/23 11:52:49;;;;;;;16.88;7.75;;;16.50;99.90;;;;;;4965790;28;20443;-74
2023/07/23 11:55:25;;;;;;;14.35;8.52;;;16.40;99.90;;;;;;4954387;28;261838;-73
2023/07/23 11:57:55;;;;;;;15.55;8.05;;;16.50;99.90;;;;;;4979319;28;20054;-73
2023/07/23 12:00:31;;;;;;;19.27;8.35;;;16.40;99.90;;;;;;4964898;28;211762;-73
2023/07/23 12:02:58;;;;;;;13.38;7.72;;;16.50;99.90;;;;;;4996124;28;20062;-73
2023/07/23 12:05:24;;;;;;;13.55;6.90;;;16.50;99.90;;;;;;4956847;28;58204;-71
2023/07/23 12:07:54;;;;;;;14.50;7.97;;;16.40;99.90;;;;;;4983860;28;20627;-73
2023/07/23 12:10:20;;;;;;;15.32;7.60;;;16.50;99.90;;;;;;4967925;28;170965;-73
2023/07/23 12:12:47;;;;;;;15.60;8.00;;;16.50;99.90;;;;;;4969824;28;20062;-73
2023/07/23 12:15:15;;;;;;;13.48;7.88;;;16.70;99.90;;;;;;4963127;28;165821;-72
2023/07/23 12:17:42;;;;;;;14.68;7.00;;;16.70;99.90;;;;;;4975702;28;20511;-72
2023/07/23 12:20:09;;;;;;;16.17;7.32;;;16.70;99.90;;;;;;4964205;28;228112;-72
2023/07/23 12:22:56;;;;;;;15.32;7.00;;;16.80;99.90;;;;;;4981400;28;20149;-72
2023/07/23 12:25:24;;;;;;;13.07;6.82;;;16.90;99.90;;;;;;4972573;28;161954;-71
2023/07/23 12:27:53;;;;;;;17.08;6.40;;;17.10;99.90;;;;;;4981141;28;20046;-72
2023/07/23 12:30:19;;;;;;;13.07;6.82;;;17.30;99.90;;;;;;4970517;28;242372;-72
2023/07/23 12:32:47;;;;;;;12.05;5.78;;;17.60;99.90;;;;;;4981726;28;20054;-71
2023/07/23 12:35:14;;;;;;;10.88;6.22;;;17.90;99.90;;;;;;4970318;28;157890;-72